createdAt,value
2017-11-19T00:00:32.586Z,28.87
2017-11-19T00:02:58.857Z,29.83
2017-11-19T00:05:25.124Z,29.90
2017-11-19T00:07:51.381Z,30.00
2017-11-19T00:10:17.715Z,31.03
2017-11-19T00:12:43.959Z,28.80
2017-11-19T00:15:10.329Z,29.27
2017-11-19T00:17:36.829Z,29.57
2017-11-19T00:20:03.265Z,28.53
2017-11-19T00:22:29.618Z,26.37
2017-11-19T00:24:56.126Z,29.87
2017-11-19T00:27:22.494Z,29.30
2017-11-19T00:29:48.890Z,32.13
2017-11-19T00:32:15.348Z,29.33
2017-11-19T00:34:41.772Z,29.00
2017-11-19T00:37:08.141Z,27.37
2017-11-19T00:39:34.541Z,27.30
2017-11-19T00:42:00.877Z,26.80
2017-11-19T00:44:27.233Z,28.73
2017-11-19T00:46:53.662Z,27.93
2017-11-19T00:49:20.010Z,28.57
2017-11-19T00:51:46.345Z,28.63
2017-11-19T00:54:12.814Z,27.70
2017-11-19T00:56:39.163Z,29.43
2017-11-19T00:59:05.505Z,29.90
2017-11-19T01:01:31.914Z,25.57
2017-11-19T01:03:58.310Z,27.77
2017-11-19T01:06:24.779Z,28.63
2017-11-19T01:08:51.204Z,28.67
2017-11-19T01:11:17.562Z,28.60
2017-11-19T01:13:43.974Z,29.23
2017-11-19T01:16:10.387Z,28.90
2017-11-19T01:18:36.739Z,29.10
2017-11-19T01:21:03.086Z,28.60
2017-11-19T01:23:29.502Z,30.37
2017-11-19T01:25:55.854Z,30.37
2017-11-19T01:28:22.214Z,29.00
2017-11-19T01:30:48.627Z,29.70
2017-11-19T01:33:15.061Z,29.53
2017-11-19T01:35:41.566Z,30.03
2017-11-19T01:38:08.033Z,30.70
2017-11-19T01:40:34.477Z,30.97
2017-11-19T01:43:00.851Z,33.37
2017-11-19T01:45:27.403Z,33.53
2017-11-19T01:47:53.782Z,29.17
2017-11-19T01:50:20.198Z,32.10
2017-11-19T01:52:46.804Z,31.00
2017-11-19T01:55:13.185Z,30.73
2017-11-19T01:57:39.557Z,28.47
2017-11-19T02:00:05.925Z,32.33
2017-11-19T02:02:32.398Z,33.17
2017-11-19T02:04:58.868Z,32.50
2017-11-19T02:07:25.405Z,32.60
2017-11-19T02:09:51.857Z,33.43
2017-11-19T02:12:18.238Z,32.00
2017-11-19T02:14:44.618Z,34.00
2017-11-19T02:17:11.085Z,33.57
2017-11-19T02:19:37.467Z,33.60
2017-11-19T02:22:04.111Z,32.60
2017-11-19T02:24:30.474Z,35.07
2017-11-19T02:26:56.820Z,34.83
2017-11-19T02:29:23.205Z,34.53
2017-11-19T02:31:49.566Z,34.33
2017-11-19T02:34:15.938Z,35.03
2017-11-19T02:36:42.345Z,34.33
2017-11-19T02:39:08.706Z,35.00
2017-11-19T02:41:35.060Z,36.13
2017-11-19T02:44:01.497Z,34.57
2017-11-19T02:46:27.875Z,36.27
2017-11-19T02:48:54.217Z,36.50
2017-11-19T02:51:20.609Z,34.93
2017-11-19T02:53:46.969Z,37.17
2017-11-19T02:56:13.318Z,36.47
2017-11-19T02:58:39.787Z,35.57
2017-11-19T03:01:06.220Z,37.00
2017-11-19T03:03:32.630Z,35.57
2017-11-19T03:05:59.046Z,33.90
2017-11-19T03:08:25.519Z,36.80
2017-11-19T03:10:51.910Z,35.83
2017-11-19T03:13:18.354Z,33.83
2017-11-19T03:15:44.738Z,34.57
2017-11-19T03:18:11.109Z,32.77
2017-11-19T03:20:37.534Z,31.83
2017-11-19T03:23:03.966Z,35.37
2017-11-19T03:25:30.349Z,36.47
2017-11-19T03:27:56.753Z,34.60
2017-11-19T03:30:23.113Z,36.13
2017-11-19T03:32:49.457Z,35.00
2017-11-19T03:35:16.040Z,35.87
2017-11-19T03:37:42.389Z,37.20
2017-11-19T03:40:08.846Z,35.17
2017-11-19T03:42:35.249Z,36.93
2017-11-19T03:45:01.614Z,36.77
2017-11-19T03:47:28.012Z,35.80
2017-11-19T03:49:54.414Z,39.00
2017-11-19T03:52:20.761Z,37.80
2017-11-19T03:54:47.137Z,37.33
2017-11-19T03:57:13.570Z,37.73
2017-11-19T03:59:39.929Z,38.87
2017-11-19T04:02:06.281Z,39.07
2017-11-19T04:04:32.698Z,38.03
2017-11-19T04:06:59.078Z,37.00
2017-11-19T04:09:25.424Z,39.10
2017-11-19T04:11:51.821Z,36.87
2017-11-19T04:14:18.193Z,39.77
2017-11-19T04:16:44.542Z,38.57
2017-11-19T04:19:10.926Z,36.00
2017-11-19T04:21:37.297Z,38.00
2017-11-19T04:24:03.773Z,38.00
2017-11-19T04:26:30.258Z,38.13
2017-11-19T04:28:56.658Z,39.20
2017-11-19T04:31:23.049Z,38.53
2017-11-19T04:33:49.762Z,40.03
2017-11-19T04:36:16.177Z,40.40
2017-11-19T04:38:42.599Z,40.13
2017-11-19T04:41:09.029Z,40.43
2017-11-19T04:43:35.413Z,42.73
2017-11-19T04:46:01.761Z,41.87
2017-11-19T04:48:28.180Z,41.57
2017-11-19T04:50:54.518Z,41.30
2017-11-19T04:53:20.869Z,42.60
2017-11-19T04:55:47.560Z,41.53
2017-11-19T04:58:13.906Z,43.97
2017-11-19T05:00:40.273Z,29.20
2017-11-19T05:03:06.681Z,26.63
2017-11-19T05:05:33.049Z,27.00
2017-11-19T05:07:59.450Z,25.00
2017-11-19T05:10:25.865Z,22.53
2017-11-19T05:12:52.217Z,21.00
2017-11-19T05:15:18.561Z,21.43
2017-11-19T05:17:44.980Z,20.13
2017-11-19T05:20:11.330Z,19.37
2017-11-19T05:22:37.725Z,19.70
2017-11-19T05:25:04.254Z,20.27
2017-11-19T05:27:30.658Z,20.47
2017-11-19T05:29:57.011Z,19.70
2017-11-19T05:32:23.402Z,20.57
2017-11-19T05:34:49.774Z,19.27
2017-11-19T05:37:16.188Z,20.53
2017-11-19T05:39:42.601Z,19.90
2017-11-19T05:42:08.946Z,22.83
2017-11-19T05:44:35.298Z,24.67
2017-11-19T05:47:01.686Z,24.97
2017-11-19T05:49:28.045Z,31.13
2017-11-19T05:51:54.398Z,42.30
2017-11-19T05:54:20.789Z,47.57
2017-11-19T05:56:47.130Z,46.90
2017-11-19T05:59:13.502Z,47.50
2017-11-19T06:01:39.928Z,51.93
2017-11-19T06:04:06.329Z,51.97
2017-11-19T06:06:32.669Z,46.80
2017-11-19T06:08:59.049Z,50.33
2017-11-19T06:11:25.394Z,50.47
2017-11-19T06:13:51.733Z,50.97
2017-11-19T06:16:18.126Z,52.30
2017-11-19T06:18:44.473Z,54.27
2017-11-19T06:21:10.830Z,51.80
2017-11-19T06:23:37.211Z,51.97
2017-11-19T06:26:03.585Z,52.07
2017-11-19T06:28:29.983Z,51.63
2017-11-19T06:30:56.511Z,49.97
2017-11-19T06:33:22.880Z,56.57
2017-11-19T06:35:49.276Z,50.67
2017-11-19T06:38:15.667Z,51.83
2017-11-19T06:40:42.013Z,50.07
2017-11-19T06:43:08.370Z,49.90
2017-11-19T06:45:34.774Z,53.13
2017-11-19T06:48:01.166Z,53.37
2017-11-19T06:50:27.568Z,53.40
2017-11-19T06:52:53.977Z,52.80
2017-11-19T06:55:20.349Z,53.17
2017-11-19T06:57:46.689Z,52.80
2017-11-19T07:00:13.125Z,49.57
2017-11-19T07:02:39.477Z,52.03
2017-11-19T07:05:05.861Z,52.60
2017-11-19T07:07:32.242Z,54.07
2017-11-19T07:09:58.585Z,54.20
2017-11-19T07:12:24.929Z,50.50
2017-11-19T07:14:51.321Z,50.10
2017-11-19T07:17:17.698Z,54.93
2017-11-19T07:19:44.138Z,53.37
2017-11-19T07:22:10.550Z,52.20
2017-11-19T07:24:36.933Z,52.00
2017-11-19T07:27:03.349Z,52.50
2017-11-19T07:29:29.814Z,51.30
2017-11-19T07:31:56.251Z,51.70
2017-11-19T07:34:22.732Z,51.43
2017-11-19T07:36:49.238Z,51.97
2017-11-19T07:39:15.666Z,49.43
2017-11-19T07:41:42.083Z,49.20
2017-11-19T07:44:08.554Z,47.50
2017-11-19T07:46:34.979Z,52.23
2017-11-19T07:49:01.502Z,50.20
2017-11-19T07:51:28.022Z,44.77
2017-11-19T07:53:54.471Z,44.27
2017-11-19T07:56:20.890Z,48.73
2017-11-19T07:58:47.298Z,48.07
2017-11-19T08:01:13.724Z,45.83
2017-11-19T08:03:40.085Z,47.13
2017-11-19T08:06:06.569Z,44.63
2017-11-19T08:08:33.034Z,38.90
2017-11-19T08:10:59.414Z,39.97
2017-11-19T08:13:25.806Z,40.17
2017-11-19T08:15:52.150Z,42.20
2017-11-19T08:18:18.538Z,38.90
2017-11-19T08:20:44.964Z,36.83
2017-11-19T08:23:11.350Z,34.40
2017-11-19T08:25:37.750Z,34.73
2017-11-19T08:28:04.190Z,35.03
2017-11-19T08:30:30.619Z,32.93
2017-11-19T08:32:56.974Z,34.50
2017-11-19T08:35:23.410Z,31.07
2017-11-19T08:37:49.766Z,30.60
2017-11-19T08:40:16.114Z,28.83
2017-11-19T08:42:42.527Z,27.93
2017-11-19T08:45:08.890Z,25.00
2017-11-19T08:47:35.282Z,23.63
2017-11-19T08:50:01.706Z,23.83
2017-11-19T08:52:28.055Z,23.63
2017-11-19T08:54:54.402Z,26.13
2017-11-19T08:57:20.786Z,25.93
2017-11-19T08:59:47.129Z,25.63
2017-11-19T09:02:13.500Z,26.37
2017-11-19T09:04:39.965Z,37.40
2017-11-19T09:07:06.317Z,44.70
2017-11-19T09:09:32.678Z,43.03
2017-11-19T09:11:59.059Z,44.57
2017-11-19T09:14:25.419Z,45.57
2017-11-19T09:16:51.777Z,43.57
2017-11-19T09:19:18.155Z,43.63
2017-11-19T09:21:44.515Z,40.23
2017-11-19T09:24:10.893Z,41.67
2017-11-19T09:26:37.281Z,41.53
2017-11-19T09:29:03.642Z,36.87
2017-11-19T09:31:30.021Z,30.63
2017-11-19T09:33:56.421Z,23.80
2017-11-19T09:36:22.778Z,23.60
2017-11-19T09:38:49.167Z,23.80
2017-11-19T09:41:15.557Z,25.37
2017-11-19T09:43:41.897Z,25.33
2017-11-19T09:46:08.251Z,24.87
2017-11-19T09:48:34.665Z,24.43
2017-11-19T09:51:01.034Z,23.83
2017-11-19T09:53:27.382Z,26.73
2017-11-19T09:55:53.810Z,26.23
2017-11-19T09:58:20.270Z,27.63
2017-11-19T10:00:46.647Z,27.13
2017-11-19T10:03:13.135Z,26.20
2017-11-19T10:05:39.482Z,25.53
2017-11-19T10:08:05.899Z,28.40
2017-11-19T10:10:32.306Z,29.33
2017-11-19T10:12:58.682Z,29.20
2017-11-19T10:15:25.033Z,30.67
2017-11-19T10:17:51.405Z,29.27
2017-11-19T10:20:17.771Z,30.50
2017-11-19T10:22:44.170Z,29.27
2017-11-19T10:25:10.578Z,31.30
2017-11-19T10:27:36.929Z,30.17
2017-11-19T10:30:03.389Z,28.20
2017-11-19T10:32:29.777Z,28.50
2017-11-19T10:34:56.152Z,25.93
2017-11-19T10:37:22.505Z,22.07
2017-11-19T10:39:48.890Z,24.23
2017-11-19T10:42:15.252Z,24.43
2017-11-19T10:44:41.610Z,24.20
2017-11-19T10:47:07.984Z,22.10
2017-11-19T10:49:34.399Z,21.90
2017-11-19T10:52:00.753Z,21.87
2017-11-19T10:54:27.141Z,21.40
2017-11-19T10:56:53.618Z,22.00
2017-11-19T10:59:19.973Z,21.67
2017-11-19T11:01:46.508Z,21.23
2017-11-19T11:04:12.865Z,21.10
2017-11-19T11:06:39.201Z,20.50
2017-11-19T11:09:05.813Z,18.03
2017-11-19T11:11:32.168Z,18.70
2017-11-19T11:13:58.534Z,18.20
2017-11-19T11:16:25.070Z,20.43
2017-11-19T11:18:51.442Z,21.90
2017-11-19T11:21:17.802Z,21.27
2017-11-19T11:23:44.206Z,19.33
2017-11-19T11:26:10.566Z,19.00
2017-11-19T11:28:36.945Z,22.23
2017-11-19T11:31:03.335Z,21.80
2017-11-19T11:33:29.675Z,25.37
2017-11-19T11:35:56.045Z,22.57
2017-11-19T11:38:22.430Z,22.03
2017-11-19T11:40:48.788Z,22.90
2017-11-19T11:43:15.177Z,23.27
2017-11-19T11:45:41.598Z,22.37
2017-11-19T11:48:08.128Z,21.00
2017-11-19T11:50:34.560Z,20.37
2017-11-19T11:53:01.134Z,20.80
2017-11-19T11:55:27.490Z,20.33
2017-11-19T11:57:53.859Z,18.50
2017-11-19T12:00:20.318Z,19.43
2017-11-19T12:02:46.726Z,18.23
2017-11-19T12:05:13.097Z,19.77
2017-11-19T12:07:39.498Z,16.43
2017-11-19T12:10:05.854Z,14.67
2017-11-19T12:12:32.256Z,14.40
2017-11-19T12:14:58.665Z,15.83
2017-11-19T12:17:25.121Z,14.73
2017-11-19T12:19:51.482Z,12.93
2017-11-19T12:22:17.898Z,15.60
2017-11-19T12:24:44.284Z,16.23
2017-11-19T12:27:10.684Z,14.67
2017-11-19T12:29:37.138Z,13.47
2017-11-19T12:32:03.614Z,12.37
2017-11-19T12:34:30.025Z,13.37
2017-11-19T12:36:56.470Z,13.40
2017-11-19T12:39:22.853Z,13.60
2017-11-19T12:41:49.232Z,11.90
2017-11-19T12:44:15.786Z,10.20
2017-11-19T12:46:42.195Z,10.93
2017-11-19T12:49:08.565Z,11.60
2017-11-19T12:51:34.981Z,11.90
2017-11-19T12:54:01.347Z,13.00
2017-11-19T12:56:27.747Z,11.73
2017-11-19T12:58:54.334Z,11.40
2017-11-19T13:01:20.690Z,15.47
2017-11-19T13:03:47.045Z,15.83
2017-11-19T13:06:13.440Z,13.03
2017-11-19T13:08:39.809Z,15.10
2017-11-19T13:11:06.169Z,13.47
2017-11-19T13:13:32.568Z,13.93
2017-11-19T13:15:59.008Z,13.50
2017-11-19T13:18:25.442Z,14.17
2017-11-19T13:20:51.821Z,14.63
2017-11-19T13:23:18.313Z,11.70
2017-11-19T13:25:44.670Z,13.80
2017-11-19T13:28:11.174Z,13.17
2017-11-19T13:30:37.545Z,12.80
2017-11-19T13:33:03.938Z,13.67
2017-11-19T13:35:30.345Z,13.27
2017-11-19T13:37:56.702Z,13.10
2017-11-19T13:40:23.048Z,13.67
2017-11-19T13:42:49.446Z,15.13
2017-11-19T13:45:15.798Z,14.83
2017-11-19T13:47:42.154Z,14.70
2017-11-19T13:50:08.539Z,14.50
2017-11-19T13:52:34.914Z,16.40
2017-11-19T13:55:01.278Z,14.53
2017-11-19T13:57:27.686Z,14.77
2017-11-19T13:59:54.042Z,14.90
2017-11-19T14:02:20.385Z,16.53
2017-11-19T14:04:46.790Z,16.67
2017-11-19T14:07:13.138Z,17.70
2017-11-19T14:09:39.489Z,17.67
2017-11-19T14:12:05.890Z,17.90
2017-11-19T14:14:32.257Z,18.30
2017-11-19T14:16:58.610Z,19.20
2017-11-19T14:19:25.010Z,18.67
2017-11-19T14:21:51.374Z,18.70
2017-11-19T14:24:17.747Z,21.20
2017-11-19T14:26:44.145Z,20.23
2017-11-19T14:29:10.493Z,20.73
2017-11-19T14:31:36.846Z,19.77
2017-11-19T14:34:03.249Z,19.80
2017-11-19T14:36:29.609Z,19.80
2017-11-19T14:38:55.981Z,19.53
2017-11-19T14:41:22.398Z,20.70
2017-11-19T14:43:48.749Z,21.83
2017-11-19T14:46:15.109Z,22.60
2017-11-19T14:48:41.507Z,28.57
2017-11-19T14:51:07.933Z,34.73
2017-11-19T14:53:34.298Z,43.30
2017-11-19T14:56:00.691Z,47.80
2017-11-19T14:58:27.158Z,47.53
2017-11-19T15:00:53.507Z,46.03
2017-11-19T15:03:19.893Z,47.13
2017-11-19T15:05:46.254Z,45.43
2017-11-19T15:08:12.614Z,57.50
2017-11-19T15:10:39.020Z,60.20
2017-11-19T15:13:05.384Z,51.77
2017-11-19T15:15:31.884Z,56.67
2017-11-19T15:17:59.109Z,54.10
2017-11-19T15:20:25.475Z,63.30
2017-11-19T15:22:51.901Z,62.67
2017-11-19T15:25:18.294Z,62.13
2017-11-19T15:27:44.642Z,62.90
2017-11-19T15:30:11.001Z,69.83
2017-11-19T15:32:37.392Z,62.47
2017-11-19T15:35:03.774Z,57.50
2017-11-19T15:37:30.124Z,57.37
2017-11-19T15:39:56.507Z,59.50
2017-11-19T15:42:22.857Z,56.20
2017-11-19T15:44:49.827Z,60.73
2017-11-19T15:47:16.242Z,61.80
2017-11-19T15:49:42.593Z,60.17
2017-11-19T15:52:08.950Z,59.00
2017-11-19T15:54:35.387Z,64.17
2017-11-19T15:57:01.755Z,67.47
2017-11-19T15:59:28.118Z,77.47
2017-11-19T16:01:55.400Z,91.90
2017-11-19T16:04:21.794Z,101.20
2017-11-19T16:06:48.162Z,100.23
2017-11-19T16:09:15.625Z,88.57
2017-11-19T16:11:42.003Z,89.07
2017-11-19T16:14:08.366Z,97.77
2017-11-19T16:16:34.746Z,92.97
2017-11-19T16:19:01.103Z,90.67
2017-11-19T16:21:27.502Z,89.20
2017-11-19T16:23:53.922Z,88.20
2017-11-19T16:26:20.276Z,91.10
2017-11-19T16:28:47.606Z,102.80
2017-11-19T16:31:14.006Z,104.50
2017-11-19T16:33:41.019Z,103.37
2017-11-19T16:36:08.519Z,118.63
2017-11-19T16:38:34.919Z,157.40
2017-11-19T16:41:01.317Z,236.67
2017-11-19T16:43:27.782Z,296.27
2017-11-19T16:45:54.198Z,305.17
2017-11-19T16:48:21.470Z,283.87
2017-11-19T16:50:47.900Z,286.43
2017-11-19T16:53:14.281Z,294.13
2017-11-19T16:55:40.638Z,300.43
2017-11-19T16:58:08.019Z,313.17
2017-11-19T17:00:36.307Z,316.60
2017-11-19T17:03:02.697Z,317.47
2017-11-19T17:05:29.889Z,311.17
2017-11-19T17:07:56.383Z,311.57
2017-11-19T17:10:26.206Z,306.47
2017-11-19T17:12:52.892Z,293.33
2017-11-19T17:15:19.278Z,293.80
2017-11-19T17:17:45.786Z,267.80
2017-11-19T17:20:12.399Z,264.93
2017-11-19T17:22:38.883Z,252.07
2017-11-19T17:25:05.291Z,229.03
2017-11-19T17:27:31.685Z,191.37
2017-11-19T17:29:58.070Z,171.27
2017-11-19T17:32:24.486Z,165.00
2017-11-19T17:34:50.902Z,164.60
2017-11-19T17:37:17.486Z,158.43
2017-11-19T17:39:43.878Z,176.30
2017-11-19T17:42:10.254Z,164.63
2017-11-19T17:44:36.703Z,150.83
2017-11-19T17:47:03.751Z,109.03
2017-11-19T17:49:30.114Z,99.13
2017-11-19T17:51:56.557Z,57.10
2017-11-19T17:54:22.924Z,54.30
2017-11-19T17:56:49.302Z,44.27
2017-11-19T17:59:15.727Z,45.27
2017-11-19T18:01:43.169Z,45.63
2017-11-19T18:04:10.430Z,46.07
2017-11-19T18:06:36.813Z,49.03
2017-11-19T18:09:04.103Z,53.53
2017-11-19T18:11:30.465Z,57.80
2017-11-19T18:13:57.795Z,51.03
2017-11-19T18:16:24.143Z,47.43
2017-11-19T18:18:50.495Z,38.53
2017-11-19T18:21:16.897Z,28.83
2017-11-19T18:23:44.071Z,48.33
2017-11-19T18:26:11.267Z,48.13
2017-11-19T18:28:38.480Z,38.27
2017-11-19T18:31:06.642Z,34.20
2017-11-19T18:33:33.650Z,31.97
2017-11-19T18:36:00.048Z,29.47
2017-11-19T18:38:27.524Z,95.40
2017-11-19T18:40:53.901Z,92.13
2017-11-19T18:43:20.303Z,114.97
2017-11-19T18:45:46.938Z,149.77
2017-11-19T18:48:13.321Z,79.77
2017-11-19T18:50:39.791Z,42.57
2017-11-19T18:53:07.099Z,32.67
2017-11-19T18:55:33.779Z,44.13
2017-11-19T18:58:00.203Z,34.47
2017-11-19T19:00:26.612Z,33.63
2017-11-19T19:02:53.022Z,32.90
2017-11-19T19:05:20.427Z,30.00
2017-11-19T19:07:47.584Z,31.30
2017-11-19T19:10:14.810Z,28.83
2017-11-19T19:12:42.203Z,27.03
2017-11-19T19:15:08.611Z,25.47
2017-11-19T19:17:35.013Z,26.40
2017-11-19T19:20:01.495Z,23.67
2017-11-19T19:22:27.865Z,24.63
2017-11-19T19:24:54.326Z,32.47
2017-11-19T19:27:20.762Z,36.30
2017-11-19T19:29:47.440Z,37.03
2017-11-19T19:32:13.834Z,35.27
2017-11-19T19:34:41.627Z,32.27
2017-11-19T19:37:08.036Z,32.27
2017-11-19T19:39:35.197Z,33.90
2017-11-19T19:42:02.518Z,33.60
2017-11-19T19:44:29.424Z,33.13
2017-11-19T19:46:55.807Z,34.73
2017-11-19T19:49:23.850Z,37.17
2017-11-19T19:51:50.335Z,40.27
2017-11-19T19:54:18.271Z,49.90
2017-11-19T19:56:45.052Z,59.13
2017-11-19T19:59:12.200Z,72.87
2017-11-19T20:01:38.579Z,76.53
2017-11-19T20:04:04.982Z,79.57
2017-11-19T20:06:31.462Z,79.50
2017-11-19T20:08:58.249Z,81.87
2017-11-19T20:11:24.724Z,80.77
2017-11-19T20:13:51.078Z,82.43
2017-11-19T20:16:18.333Z,78.20
2017-11-19T20:18:44.755Z,77.10
2017-11-19T20:21:11.267Z,74.67
2017-11-19T20:23:37.642Z,77.00
2017-11-19T20:26:04.074Z,77.10
2017-11-19T20:28:30.572Z,77.77
2017-11-19T20:30:56.960Z,78.50
2017-11-19T20:33:23.777Z,84.93
2017-11-19T20:35:51.048Z,88.57
2017-11-19T20:38:17.532Z,87.97
2017-11-19T20:40:43.939Z,88.63
2017-11-19T20:43:10.397Z,82.17
2017-11-19T20:45:36.787Z,75.83
2017-11-19T20:48:03.275Z,76.30
2017-11-19T20:50:29.619Z,69.57
2017-11-19T20:52:56.027Z,68.97
2017-11-19T20:55:22.493Z,65.97
2017-11-19T20:57:49.238Z,65.13
2017-11-19T21:00:15.613Z,62.40
2017-11-19T21:02:42.046Z,61.50
2017-11-19T21:05:08.439Z,53.60
2017-11-19T21:07:34.802Z,50.87
2017-11-19T21:10:01.386Z,52.47
2017-11-19T21:12:27.749Z,48.57
2017-11-19T21:14:54.517Z,46.83
2017-11-19T21:17:20.910Z,46.60
2017-11-19T21:19:47.412Z,46.40
2017-11-19T21:22:13.768Z,46.43
2017-11-19T21:24:40.158Z,44.17
2017-11-19T21:27:07.362Z,45.70
2017-11-19T21:29:34.042Z,46.93
2017-11-19T21:32:00.449Z,45.57
2017-11-19T21:34:26.932Z,46.50
2017-11-19T21:36:53.277Z,48.23
2017-11-19T21:39:19.709Z,58.77
2017-11-19T21:41:46.138Z,66.43
2017-11-19T21:44:13.257Z,66.43
2017-11-19T21:46:39.711Z,64.03
2017-11-19T21:49:06.348Z,56.50
2017-11-19T21:51:32.784Z,53.17
2017-11-19T21:53:59.333Z,43.90
2017-11-19T21:56:26.273Z,36.80
2017-11-19T21:58:53.693Z,29.57
2017-11-19T22:01:20.122Z,25.87
2017-11-19T22:03:46.483Z,25.07
2017-11-19T22:06:12.841Z,25.60
2017-11-19T22:08:39.270Z,24.63
2017-11-19T22:11:05.681Z,23.43
2017-11-19T22:13:32.322Z,23.50
2017-11-19T22:15:58.753Z,25.33
2017-11-19T22:18:25.323Z,24.17
2017-11-19T22:20:51.676Z,25.00
2017-11-19T22:23:18.093Z,24.30
2017-11-19T22:25:44.468Z,23.10
2017-11-19T22:28:10.816Z,21.63
2017-11-19T22:30:37.249Z,23.30
2017-11-19T22:33:03.608Z,22.60
2017-11-19T22:35:29.961Z,26.07
2017-11-19T22:37:56.378Z,25.40
2017-11-19T22:40:22.724Z,26.97
2017-11-19T22:42:49.190Z,27.77
2017-11-19T22:45:15.613Z,30.53
2017-11-19T22:47:41.976Z,32.27
2017-11-19T22:50:08.335Z,28.40
2017-11-19T22:52:34.842Z,28.00
2017-11-19T22:55:01.242Z,22.80
2017-11-19T22:57:27.610Z,22.67
2017-11-19T22:59:54.014Z,20.00
2017-11-19T23:02:20.353Z,18.07
2017-11-19T23:04:46.738Z,17.33
2017-11-19T23:07:13.117Z,17.80
2017-11-19T23:09:39.465Z,20.20
2017-11-19T23:12:05.833Z,18.47
2017-11-19T23:14:32.229Z,19.20
2017-11-19T23:16:58.580Z,19.10
2017-11-19T23:19:24.921Z,17.77
2017-11-19T23:21:51.325Z,16.80
2017-11-19T23:24:17.672Z,17.33
2017-11-19T23:26:44.013Z,17.23
2017-11-19T23:29:10.385Z,18.73
2017-11-19T23:31:36.725Z,20.37
2017-11-19T23:34:03.185Z,21.97
2017-11-19T23:36:29.593Z,21.70
2017-11-19T23:38:55.933Z,20.00
2017-11-19T23:41:22.274Z,22.47
2017-11-19T23:43:48.714Z,24.43
2017-11-19T23:46:15.079Z,23.30
2017-11-19T23:48:41.426Z,23.73
2017-11-19T23:51:07.845Z,24.60
2017-11-19T23:53:34.173Z,25.07
2017-11-19T23:56:00.513Z,26.73
2017-11-19T23:58:26.921Z,28.30
